Google Maps JavaScript API Example
Pilot Flight Report # 96481 Submitted by : AST769 on 2022-10-06
Date: 2022-10-06Aircraft: Boeing 737-700
Flight No.: AST16852Distance (Nm): 421.54
Departure: KBFI - Boeing Field/King Co InternationalDestination: KRDD - Redding Mun
 TimeFuelWeightSpeeds  
Out (Taxi)1700 Flight RulesIFR
Off (Takeoff)1700 Flight Level
On (Landing)1816 VSTD
In (Ramp)1816 ZFW
Flight1.27  -  1:167156  Pax0
Block1.27  -  1:167156  Cargo0
Departure WeatherKBFI 060053Z 00000KT 10SM CLR 17/13 A3016 RMK AO2 SLP211 T01720133
Destination WeatherKRDD 060053Z 15006KT 10SM CLR 33/08 A2991 RMK AO2 SLP124 T03280083
Flight CommentsFS11